sensor_id;sensor_type;location;lat;lon;timestamp;P1;durP1;ratioP1;P2;durP2;ratioP2
12577;SDS011;6354;51.026;8.968;2022-10-16T00:01:05;1024.32;;;438.35;;
12577;SDS011;6354;51.026;8.968;2022-10-16T00:03:35;1077.87;;;493.63;;
12577;SDS011;6354;51.026;8.968;2022-10-16T00:06:03;1081.07;;;539.65;;
12577;SDS011;6354;51.026;8.968;2022-10-16T00:08:32;1056.80;;;443.75;;
12577;SDS011;6354;51.026;8.968;2022-10-16T00:11:02;1277.43;;;573.90;;
12577;SDS011;6354;51.026;8.968;2022-10-16T00:13:32;1160.40;;;660.35;;
12577;SDS011;6354;51.026;8.968;2022-10-16T00:16:03;973.03;;;456.98;;
12577;SDS011;6354;51.026;8.968;2022-10-16T00:18:32;929.45;;;390.80;;
12577;SDS011;6354;51.026;8.968;2022-10-16T00:21:04;747.75;;;265.40;;
12577;SDS011;6354;51.026;8.968;2022-10-16T00:23:33;1308.63;;;621.20;;
12577;SDS011;6354;51.026;8.968;2022-10-16T00:26:03;933.88;;;407.00;;
12577;SDS011;6354;51.026;8.968;2022-10-16T00:28:34;1032.85;;;443.00;;
12577;SDS011;6354;51.026;8.968;2022-10-16T00:31:05;1145.25;;;509.48;;
12577;SDS011;6354;51.026;8.968;2022-10-16T00:33:34;1082.97;;;429.67;;
12577;SDS011;6354;51.026;8.968;2022-10-16T00:36:03;1174.40;;;446.40;;
12577;SDS011;6354;51.026;8.968;2022-10-16T00:38:33;1302.27;;;529.77;;
12577;SDS011;6354;51.026;8.968;2022-10-16T00:41:01;1301.00;;;573.05;;
12577;SDS011;6354;51.026;8.968;2022-10-16T00:43:33;860.58;;;371.20;;
12577;SDS011;6354;51.026;8.968;2022-10-16T00:46:08;1086.90;;;375.73;;
12577;SDS011;6354;51.026;8.968;2022-10-16T00:48:42;1307.10;;;451.23;;
12577;SDS011;6354;51.026;8.968;2022-10-16T00:51:15;941.20;;;410.98;;
12577;SDS011;6354;51.026;8.968;2022-10-16T00:53:46;1139.50;;;356.13;;
12577;SDS011;6354;51.026;8.968;2022-10-16T00:56:15;888.25;;;420.63;;
12577;SDS011;6354;51.026;8.968;2022-10-16T00:58:44;1353.30;;;558.85;;
12577;SDS011;6354;51.026;8.968;2022-10-16T01:01:13;799.25;;;340.70;;
12577;SDS011;6354;51.026;8.968;2022-10-16T01:03:41;1063.75;;;424.80;;
12577;SDS011;6354;51.026;8.968;2022-10-16T01:06:21;1098.35;;;407.60;;
12577;SDS011;6354;51.026;8.968;2022-10-16T01:08:58;874.33;;;399.35;;
12577;SDS011;6354;51.026;8.968;2022-10-16T01:11:44;844.77;;;365.13;;
12577;SDS011;6354;51.026;8.968;2022-10-16T01:14:24;1023.47;;;407.48;;
12577;SDS011;6354;51.026;8.968;2022-10-16T01:16:59;668.58;;;212.90;;
12577;SDS011;6354;51.026;8.968;2022-10-16T01:19:36;1000.50;;;356.57;;
12577;SDS011;6354;51.026;8.968;2022-10-16T01:22:17;847.35;;;324.55;;
12577;SDS011;6354;51.026;8.968;2022-10-16T01:24:48;616.10;;;229.15;;
12577;SDS011;6354;51.026;8.968;2022-10-16T01:27:19;1118.80;;;392.10;;
12577;SDS011;6354;51.026;8.968;2022-10-16T01:29:51;881.10;;;296.13;;
12577;SDS011;6354;51.026;8.968;2022-10-16T01:32:24;1062.03;;;391.93;;
12577;SDS011;6354;51.026;8.968;2022-10-16T01:34:59;840.03;;;284.23;;
12577;SDS011;6354;51.026;8.968;2022-10-16T01:37:32;758.42;;;346.50;;
12577;SDS011;6354;51.026;8.968;2022-10-16T01:40:06;1255.15;;;514.05;;
12577;SDS011;6354;51.026;8.968;2022-10-16T01:42:40;709.92;;;294.50;;
12577;SDS011;6354;51.026;8.968;2022-10-16T01:45:13;447.75;;;175.93;;
12577;SDS011;6354;51.026;8.968;2022-10-16T01:47:44;938.67;;;437.50;;
12577;SDS011;6354;51.026;8.968;2022-10-16T01:50:14;570.72;;;214.02;;
12577;SDS011;6354;51.026;8.968;2022-10-16T01:52:45;1050.60;;;387.87;;
12577;SDS011;6354;51.026;8.968;2022-10-16T01:55:18;1252.07;;;499.93;;
12577;SDS011;6354;51.026;8.968;2022-10-16T01:57:50;889.67;;;330.53;;
12577;SDS011;6354;51.026;8.968;2022-10-16T02:00:21;1076.40;;;340.50;;
12577;SDS011;6354;51.026;8.968;2022-10-16T02:02:51;1048.73;;;344.27;;
12577;SDS011;6354;51.026;8.968;2022-10-16T02:05:22;769.77;;;259.07;;
12577;SDS011;6354;51.026;8.968;2022-10-16T02:07:53;950.85;;;407.08;;
12577;SDS011;6354;51.026;8.968;2022-10-16T02:10:25;1314.50;;;547.47;;
12577;SDS011;6354;51.026;8.968;2022-10-16T02:13:00;965.60;;;396.53;;
12577;SDS011;6354;51.026;8.968;2022-10-16T02:15:33;965.30;;;416.23;;
12577;SDS011;6354;51.026;8.968;2022-10-16T02:18:01;1264.60;;;470.03;;
12577;SDS011;6354;51.026;8.968;2022-10-16T02:20:32;1174.45;;;448.73;;
12577;SDS011;6354;51.026;8.968;2022-10-16T02:23:04;1120.50;;;455.13;;
12577;SDS011;6354;51.026;8.968;2022-10-16T02:25:34;1194.38;;;492.17;;
12577;SDS011;6354;51.026;8.968;2022-10-16T02:28:08;1197.28;;;410.92;;
12577;SDS011;6354;51.026;8.968;2022-10-16T02:30:41;964.67;;;401.23;;
12577;SDS011;6354;51.026;8.968;2022-10-16T02:33:13;1000.30;;;419.07;;
12577;SDS011;6354;51.026;8.968;2022-10-16T02:35:42;1123.68;;;417.48;;
12577;SDS011;6354;51.026;8.968;2022-10-16T02:38:13;996.55;;;466.75;;
12577;SDS011;6354;51.026;8.968;2022-10-16T02:40:42;993.17;;;448.48;;
12577;SDS011;6354;51.026;8.968;2022-10-16T02:43:12;965.22;;;327.38;;
12577;SDS011;6354;51.026;8.968;2022-10-16T02:45:40;777.20;;;377.33;;
12577;SDS011;6354;51.026;8.968;2022-10-16T02:48:08;630.22;;;213.10;;
12577;SDS011;6354;51.026;8.968;2022-10-16T02:50:36;657.35;;;262.63;;
12577;SDS011;6354;51.026;8.968;2022-10-16T02:53:04;941.80;;;322.55;;
12577;SDS011;6354;51.026;8.968;2022-10-16T02:55:32;692.20;;;331.65;;
12577;SDS011;6354;51.026;8.968;2022-10-16T02:58:00;798.55;;;325.85;;
12577;SDS011;6354;51.026;8.968;2022-10-16T03:00:29;727.65;;;348.42;;
12577;SDS011;6354;51.026;8.968;2022-10-16T03:02:57;416.45;;;141.25;;
12577;SDS011;6354;51.026;8.968;2022-10-16T03:05:26;953.00;;;515.45;;
12577;SDS011;6354;51.026;8.968;2022-10-16T03:07:54;1363.93;;;578.38;;
12577;SDS011;6354;51.026;8.968;2022-10-16T03:10:22;1200.93;;;587.63;;
12577;SDS011;6354;51.026;8.968;2022-10-16T03:12:50;849.58;;;351.33;;
12577;SDS011;6354;51.026;8.968;2022-10-16T03:15:18;1004.65;;;397.92;;
12577;SDS011;6354;51.026;8.968;2022-10-16T03:17:47;1034.38;;;385.25;;
12577;SDS011;6354;51.026;8.968;2022-10-16T03:20:15;1152.32;;;447.73;;
12577;SDS011;6354;51.026;8.968;2022-10-16T03:22:43;965.47;;;425.75;;
12577;SDS011;6354;51.026;8.968;2022-10-16T03:25:11;736.35;;;343.17;;
12577;SDS011;6354;51.026;8.968;2022-10-16T03:27:39;1096.00;;;411.08;;
12577;SDS011;6354;51.026;8.968;2022-10-16T03:30:08;874.15;;;343.10;;
12577;SDS011;6354;51.026;8.968;2022-10-16T03:32:37;688.93;;;278.33;;
12577;SDS011;6354;51.026;8.968;2022-10-16T03:35:06;1051.50;;;480.63;;
12577;SDS011;6354;51.026;8.968;2022-10-16T03:37:35;1005.53;;;463.48;;
12577;SDS011;6354;51.026;8.968;2022-10-16T03:40:03;1005.53;;;455.83;;
12577;SDS011;6354;51.026;8.968;2022-10-16T03:42:32;420.23;;;161.33;;
12577;SDS011;6354;51.026;8.968;2022-10-16T03:45:00;1130.10;;;419.98;;
12577;SDS011;6354;51.026;8.968;2022-10-16T03:47:28;1006.13;;;465.80;;
12577;SDS011;6354;51.026;8.968;2022-10-16T03:49:59;704.45;;;334.52;;
12577;SDS011;6354;51.026;8.968;2022-10-16T03:52:28;1217.73;;;549.13;;
12577;SDS011;6354;51.026;8.968;2022-10-16T03:54:56;847.87;;;367.83;;
12577;SDS011;6354;51.026;8.968;2022-10-16T03:57:24;1278.27;;;506.10;;
12577;SDS011;6354;51.026;8.968;2022-10-16T03:59:53;704.30;;;293.47;;
12577;SDS011;6354;51.026;8.968;2022-10-16T04:02:21;895.97;;;419.87;;
12577;SDS011;6354;51.026;8.968;2022-10-16T04:04:49;773.90;;;360.03;;
12577;SDS011;6354;51.026;8.968;2022-10-16T04:07:17;1027.13;;;477.70;;
12577;SDS011;6354;51.026;8.968;2022-10-16T04:09:47;934.23;;;436.60;;
12577;SDS011;6354;51.026;8.968;2022-10-16T04:12:15;1038.43;;;445.63;;
12577;SDS011;6354;51.026;8.968;2022-10-16T04:14:43;788.37;;;341.77;;
12577;SDS011;6354;51.026;8.968;2022-10-16T04:17:11;1079.63;;;431.55;;
12577;SDS011;6354;51.026;8.968;2022-10-16T04:19:39;635.73;;;265.43;;
12577;SDS011;6354;51.026;8.968;2022-10-16T04:22:07;956.07;;;355.30;;
12577;SDS011;6354;51.026;8.968;2022-10-16T04:24:35;540.67;;;214.83;;
12577;SDS011;6354;51.026;8.968;2022-10-16T04:27:04;787.07;;;305.87;;
12577;SDS011;6354;51.026;8.968;2022-10-16T04:29:32;664.20;;;265.37;;
12577;SDS011;6354;51.026;8.968;2022-10-16T04:32:00;726.37;;;333.60;;
12577;SDS011;6354;51.026;8.968;2022-10-16T04:34:28;618.73;;;273.57;;
12577;SDS011;6354;51.026;8.968;2022-10-16T04:36:56;989.13;;;404.20;;
12577;SDS011;6354;51.026;8.968;2022-10-16T04:39:24;884.87;;;434.43;;
12577;SDS011;6354;51.026;8.968;2022-10-16T04:41:52;903.57;;;376.80;;
12577;SDS011;6354;51.026;8.968;2022-10-16T04:44:22;776.80;;;331.40;;
12577;SDS011;6354;51.026;8.968;2022-10-16T04:46:50;857.77;;;401.40;;
12577;SDS011;6354;51.026;8.968;2022-10-16T04:49:18;601.10;;;221.50;;
12577;SDS011;6354;51.026;8.968;2022-10-16T04:51:46;858.93;;;360.83;;
12577;SDS011;6354;51.026;8.968;2022-10-16T04:54:14;1162.30;;;583.67;;
12577;SDS011;6354;51.026;8.968;2022-10-16T04:56:42;773.53;;;309.87;;
12577;SDS011;6354;51.026;8.968;2022-10-16T04:59:13;969.30;;;468.27;;
12577;SDS011;6354;51.026;8.968;2022-10-16T05:01:43;864.17;;;382.17;;
12577;SDS011;6354;51.026;8.968;2022-10-16T05:04:11;559.50;;;244.90;;
12577;SDS011;6354;51.026;8.968;2022-10-16T05:06:41;665.83;;;215.17;;
12577;SDS011;6354;51.026;8.968;2022-10-16T05:09:10;929.03;;;396.10;;
12577;SDS011;6354;51.026;8.968;2022-10-16T05:11:38;768.27;;;409.23;;
12577;SDS011;6354;51.026;8.968;2022-10-16T05:14:06;1078.20;;;377.07;;
12577;SDS011;6354;51.026;8.968;2022-10-16T05:16:34;1033.07;;;453.67;;
12577;SDS011;6354;51.026;8.968;2022-10-16T05:19:03;721.43;;;292.53;;
12577;SDS011;6354;51.026;8.968;2022-10-16T05:21:51;829.23;;;314.37;;
12577;SDS011;6354;51.026;8.968;2022-10-16T05:24:19;1043.37;;;336.57;;
12577;SDS011;6354;51.026;8.968;2022-10-16T05:26:47;911.30;;;356.17;;
12577;SDS011;6354;51.026;8.968;2022-10-16T05:29:15;1543.83;;;524.70;;
12577;SDS011;6354;51.026;8.968;2022-10-16T05:31:43;964.00;;;349.77;;
12577;SDS011;6354;51.026;8.968;2022-10-16T05:34:13;769.97;;;309.40;;
12577;SDS011;6354;51.026;8.968;2022-10-16T05:36:41;1004.57;;;311.70;;
12577;SDS011;6354;51.026;8.968;2022-10-16T05:39:11;1150.27;;;460.37;;
12577;SDS011;6354;51.026;8.968;2022-10-16T05:41:41;967.40;;;438.53;;
12577;SDS011;6354;51.026;8.968;2022-10-16T05:44:09;1624.90;;;502.97;;
12577;SDS011;6354;51.026;8.968;2022-10-16T05:46:38;712.83;;;315.37;;
12577;SDS011;6354;51.026;8.968;2022-10-16T05:49:06;842.07;;;332.37;;
12577;SDS011;6354;51.026;8.968;2022-10-16T05:51:35;721.80;;;293.70;;
12577;SDS011;6354;51.026;8.968;2022-10-16T05:54:03;975.57;;;469.77;;
12577;SDS011;6354;51.026;8.968;2022-10-16T05:56:31;592.33;;;268.80;;
12577;SDS011;6354;51.026;8.968;2022-10-16T05:58:59;892.63;;;428.20;;
12577;SDS011;6354;51.026;8.968;2022-10-16T06:01:27;646.30;;;217.00;;
12577;SDS011;6354;51.026;8.968;2022-10-16T06:03:55;818.33;;;412.80;;
12577;SDS011;6354;51.026;8.968;2022-10-16T06:06:25;679.73;;;234.53;;
12577;SDS011;6354;51.026;8.968;2022-10-16T06:08:57;625.47;;;279.60;;
12577;SDS011;6354;51.026;8.968;2022-10-16T06:11:26;619.97;;;300.80;;
12577;SDS011;6354;51.026;8.968;2022-10-16T06:13:56;765.57;;;355.90;;
12577;SDS011;6354;51.026;8.968;2022-10-16T06:16:26;875.63;;;384.80;;
12577;SDS011;6354;51.026;8.968;2022-10-16T06:18:54;744.97;;;323.87;;
12577;SDS011;6354;51.026;8.968;2022-10-16T06:21:24;774.43;;;336.17;;
12577;SDS011;6354;51.026;8.968;2022-10-16T06:23:53;689.20;;;384.43;;
12577;SDS011;6354;51.026;8.968;2022-10-16T06:26:24;668.80;;;274.93;;
12577;SDS011;6354;51.026;8.968;2022-10-16T06:28:53;915.07;;;409.37;;
12577;SDS011;6354;51.026;8.968;2022-10-16T06:31:22;851.60;;;356.73;;
12577;SDS011;6354;51.026;8.968;2022-10-16T06:33:53;914.93;;;559.40;;
12577;SDS011;6354;51.026;8.968;2022-10-16T06:36:22;842.10;;;450.90;;
12577;SDS011;6354;51.026;8.968;2022-10-16T06:38:51;609.27;;;298.57;;
12577;SDS011;6354;51.026;8.968;2022-10-16T06:41:20;823.67;;;389.43;;
12577;SDS011;6354;51.026;8.968;2022-10-16T06:43:50;920.63;;;312.93;;
12577;SDS011;6354;51.026;8.968;2022-10-16T06:46:19;864.33;;;426.37;;
12577;SDS011;6354;51.026;8.968;2022-10-16T06:48:48;770.63;;;368.57;;
12577;SDS011;6354;51.026;8.968;2022-10-16T06:51:17;842.67;;;377.87;;
12577;SDS011;6354;51.026;8.968;2022-10-16T06:53:46;629.40;;;272.83;;
12577;SDS011;6354;51.026;8.968;2022-10-16T06:56:32;776.97;;;388.43;;
12577;SDS011;6354;51.026;8.968;2022-10-16T06:59:02;918.60;;;367.53;;
12577;SDS011;6354;51.026;8.968;2022-10-16T07:01:30;905.43;;;427.40;;
12577;SDS011;6354;51.026;8.968;2022-10-16T07:03:58;923.23;;;634.97;;
12577;SDS011;6354;51.026;8.968;2022-10-16T07:06:30;967.63;;;512.23;;
12577;SDS011;6354;51.026;8.968;2022-10-16T07:09:00;627.83;;;241.60;;
12577;SDS011;6354;51.026;8.968;2022-10-16T07:11:29;908.30;;;381.27;;
12577;SDS011;6354;51.026;8.968;2022-10-16T07:13:58;1011.27;;;414.83;;
12577;SDS011;6354;51.026;8.968;2022-10-16T07:16:28;813.70;;;378.70;;
12577;SDS011;6354;51.026;8.968;2022-10-16T07:18:58;655.23;;;385.30;;
12577;SDS011;6354;51.026;8.968;2022-10-16T07:21:28;768.67;;;486.30;;
12577;SDS011;6354;51.026;8.968;2022-10-16T07:24:02;865.43;;;416.23;;
12577;SDS011;6354;51.026;8.968;2022-10-16T07:26:32;930.83;;;472.83;;
12577;SDS011;6354;51.026;8.968;2022-10-16T07:29:02;1024.87;;;475.37;;
12577;SDS011;6354;51.026;8.968;2022-10-16T07:31:32;1015.97;;;476.93;;
12577;SDS011;6354;51.026;8.968;2022-10-16T07:34:00;939.90;;;487.37;;
12577;SDS011;6354;51.026;8.968;2022-10-16T07:36:28;869.77;;;587.87;;
12577;SDS011;6354;51.026;8.968;2022-10-16T07:38:57;807.67;;;364.17;;
12577;SDS011;6354;51.026;8.968;2022-10-16T07:41:25;771.60;;;335.20;;
12577;SDS011;6354;51.026;8.968;2022-10-16T07:43:54;854.77;;;463.97;;
12577;SDS011;6354;51.026;8.968;2022-10-16T07:46:26;718.27;;;399.27;;
12577;SDS011;6354;51.026;8.968;2022-10-16T07:48:56;1005.60;;;423.90;;
12577;SDS011;6354;51.026;8.968;2022-10-16T07:51:24;1141.25;;;570.30;;
12577;SDS011;6354;51.026;8.968;2022-10-16T07:53:53;1013.25;;;517.75;;
12577;SDS011;6354;51.026;8.968;2022-10-16T07:56:22;964.50;;;430.23;;
12577;SDS011;6354;51.026;8.968;2022-10-16T07:58:50;1190.70;;;499.70;;
12577;SDS011;6354;51.026;8.968;2022-10-16T08:01:19;958.42;;;459.48;;
12577;SDS011;6354;51.026;8.968;2022-10-16T08:03:48;811.80;;;332.48;;
12577;SDS011;6354;51.026;8.968;2022-10-16T08:06:19;824.80;;;328.90;;
12577;SDS011;6354;51.026;8.968;2022-10-16T08:08:53;696.20;;;352.58;;
12577;SDS011;6354;51.026;8.968;2022-10-16T08:11:21;1019.10;;;462.70;;
12577;SDS011;6354;51.026;8.968;2022-10-16T08:13:50;976.45;;;367.00;;
12577;SDS011;6354;51.026;8.968;2022-10-16T08:16:18;1152.47;;;590.60;;
12577;SDS011;6354;51.026;8.968;2022-10-16T08:18:46;1036.20;;;454.85;;
12577;SDS011;6354;51.026;8.968;2022-10-16T08:21:15;1012.80;;;500.60;;
12577;SDS011;6354;51.026;8.968;2022-10-16T08:23:48;1140.43;;;459.00;;
12577;SDS011;6354;51.026;8.968;2022-10-16T08:26:23;934.00;;;631.67;;
12577;SDS011;6354;51.026;8.968;2022-10-16T08:28:52;951.70;;;463.92;;
12577;SDS011;6354;51.026;8.968;2022-10-16T08:31:20;1123.72;;;567.97;;
12577;SDS011;6354;51.026;8.968;2022-10-16T08:33:49;1252.97;;;607.10;;
12577;SDS011;6354;51.026;8.968;2022-10-16T08:36:18;1360.07;;;572.15;;
12577;SDS011;6354;51.026;8.968;2022-10-16T08:38:48;1131.60;;;443.13;;
12577;SDS011;6354;51.026;8.968;2022-10-16T08:41:26;992.25;;;581.17;;
12577;SDS011;6354;51.026;8.968;2022-10-16T08:47:09;1314.97;;;609.22;;
12577;SDS011;6354;51.026;8.968;2022-10-16T08:49:43;1140.22;;;542.03;;
12577;SDS011;6354;51.026;8.968;2022-10-16T08:52:29;1065.22;;;446.50;;
12577;SDS011;6354;51.026;8.968;2022-10-16T08:55:01;1080.28;;;464.75;;
12577;SDS011;6354;51.026;8.968;2022-10-16T08:57:30;973.25;;;550.15;;
12577;SDS011;6354;51.026;8.968;2022-10-16T09:00:00;1007.65;;;545.88;;
12577;SDS011;6354;51.026;8.968;2022-10-16T09:02:34;1215.65;;;643.28;;
12577;SDS011;6354;51.026;8.968;2022-10-16T09:05:16;1182.93;;;467.83;;
12577;SDS011;6354;51.026;8.968;2022-10-16T09:07:53;1134.20;;;535.92;;
12577;SDS011;6354;51.026;8.968;2022-10-16T09:10:37;1333.65;;;612.85;;
12577;SDS011;6354;51.026;8.968;2022-10-16T09:13:15;1405.85;;;591.88;;
12577;SDS011;6354;51.026;8.968;2022-10-16T09:15:48;1206.30;;;590.20;;
12577;SDS011;6354;51.026;8.968;2022-10-16T09:18:22;1225.32;;;540.72;;
12577;SDS011;6354;51.026;8.968;2022-10-16T09:20:59;1161.40;;;610.20;;
12577;SDS011;6354;51.026;8.968;2022-10-16T09:23:34;1022.53;;;594.97;;
12577;SDS011;6354;51.026;8.968;2022-10-16T09:26:05;1352.60;;;613.53;;
12577;SDS011;6354;51.026;8.968;2022-10-16T09:28:38;1344.70;;;632.92;;
12577;SDS011;6354;51.026;8.968;2022-10-16T09:31:09;1133.30;;;547.85;;
12577;SDS011;6354;51.026;8.968;2022-10-16T09:33:47;948.78;;;460.73;;
12577;SDS011;6354;51.026;8.968;2022-10-16T09:36:19;1185.40;;;514.78;;
12577;SDS011;6354;51.026;8.968;2022-10-16T09:38:48;1270.95;;;634.28;;
12577;SDS011;6354;51.026;8.968;2022-10-16T09:41:18;1054.25;;;568.15;;
12577;SDS011;6354;51.026;8.968;2022-10-16T09:43:49;1039.13;;;515.35;;
12577;SDS011;6354;51.026;8.968;2022-10-16T09:46:22;1381.50;;;548.22;;
12577;SDS011;6354;51.026;8.968;2022-10-16T09:48:54;1089.72;;;586.22;;
12577;SDS011;6354;51.026;8.968;2022-10-16T09:51:26;1189.10;;;671.58;;
12577;SDS011;6354;51.026;8.968;2022-10-16T09:53:57;1167.85;;;633.88;;
12577;SDS011;6354;51.026;8.968;2022-10-16T09:56:28;1310.40;;;622.72;;
12577;SDS011;6354;51.026;8.968;2022-10-16T09:58:59;1127.88;;;580.95;;
12577;SDS011;6354;51.026;8.968;2022-10-16T10:01:30;948.85;;;502.13;;
12577;SDS011;6354;51.026;8.968;2022-10-16T10:04:04;1406.03;;;591.67;;
12577;SDS011;6354;51.026;8.968;2022-10-16T10:06:35;1352.65;;;580.72;;
12577;SDS011;6354;51.026;8.968;2022-10-16T10:09:15;1607.82;;;703.90;;
12577;SDS011;6354;51.026;8.968;2022-10-16T10:11:53;1127.88;;;504.30;;
12577;SDS011;6354;51.026;8.968;2022-10-16T10:14:24;1213.97;;;653.58;;
12577;SDS011;6354;51.026;8.968;2022-10-16T10:17:09;1583.80;;;709.05;;
12577;SDS011;6354;51.026;8.968;2022-10-16T10:19:44;1258.40;;;645.35;;
12577;SDS011;6354;51.026;8.968;2022-10-16T10:22:17;1353.72;;;709.85;;
12577;SDS011;6354;51.026;8.968;2022-10-16T10:24:59;1115.63;;;612.28;;
12577;SDS011;6354;51.026;8.968;2022-10-16T10:27:42;1092.40;;;545.70;;
12577;SDS011;6354;51.026;8.968;2022-10-16T10:30:19;921.85;;;527.35;;
12577;SDS011;6354;51.026;8.968;2022-10-16T10:32:56;1123.18;;;603.13;;
12577;SDS011;6354;51.026;8.968;2022-10-16T10:35:39;1043.82;;;571.35;;
12577;SDS011;6354;51.026;8.968;2022-10-16T10:38:16;1207.25;;;596.78;;
12577;SDS011;6354;51.026;8.968;2022-10-16T10:40:55;1291.50;;;607.85;;
12577;SDS011;6354;51.026;8.968;2022-10-16T10:43:35;1436.97;;;570.53;;
12577;SDS011;6354;51.026;8.968;2022-10-16T10:46:14;1488.65;;;711.35;;
12577;SDS011;6354;51.026;8.968;2022-10-16T10:48:54;1657.00;;;635.85;;
12577;SDS011;6354;51.026;8.968;2022-10-16T10:51:36;1174.47;;;537.17;;
12577;SDS011;6354;51.026;8.968;2022-10-16T10:54:16;1097.63;;;597.83;;
12577;SDS011;6354;51.026;8.968;2022-10-16T10:56:55;1222.13;;;573.47;;
12577;SDS011;6354;51.026;8.968;2022-10-16T10:59:35;1412.07;;;628.95;;
12577;SDS011;6354;51.026;8.968;2022-10-16T11:02:12;1442.20;;;685.38;;
12577;SDS011;6354;51.026;8.968;2022-10-16T11:04:49;1114.30;;;661.65;;
12577;SDS011;6354;51.026;8.968;2022-10-16T11:07:33;1197.35;;;656.97;;
12577;SDS011;6354;51.026;8.968;2022-10-16T11:10:08;1486.82;;;659.03;;
12577;SDS011;6354;51.026;8.968;2022-10-16T11:12:42;1048.97;;;564.08;;
12577;SDS011;6354;51.026;8.968;2022-10-16T11:15:15;1286.25;;;586.63;;
12577;SDS011;6354;51.026;8.968;2022-10-16T11:17:48;1090.82;;;598.58;;
12577;SDS011;6354;51.026;8.968;2022-10-16T11:20:20;1092.75;;;701.75;;
12577;SDS011;6354;51.026;8.968;2022-10-16T11:22:53;1136.90;;;635.17;;
12577;SDS011;6354;51.026;8.968;2022-10-16T11:25:26;1280.45;;;704.92;;
12577;SDS011;6354;51.026;8.968;2022-10-16T11:31:46;1366.43;;;714.50;;
12577;SDS011;6354;51.026;8.968;2022-10-16T11:34:17;1496.78;;;716.03;;
12577;SDS011;6354;51.026;8.968;2022-10-16T11:36:53;1130.30;;;698.78;;
12577;SDS011;6354;51.026;8.968;2022-10-16T11:39:25;1517.47;;;755.78;;
12577;SDS011;6354;51.026;8.968;2022-10-16T11:41:56;1291.50;;;602.85;;
12577;SDS011;6354;51.026;8.968;2022-10-16T11:44:35;1603.15;;;742.10;;
12577;SDS011;6354;51.026;8.968;2022-10-16T11:47:15;1177.95;;;645.55;;
12577;SDS011;6354;51.026;8.968;2022-10-16T11:50:15;1067.63;;;583.15;;
12577;SDS011;6354;51.026;8.968;2022-10-16T11:52:52;1172.15;;;567.88;;
12577;SDS011;6354;51.026;8.968;2022-10-16T11:55:26;1096.78;;;667.00;;
12577;SDS011;6354;51.026;8.968;2022-10-16T11:57:59;1209.43;;;640.90;;
12577;SDS011;6354;51.026;8.968;2022-10-16T12:00:34;1196.88;;;611.25;;
12577;SDS011;6354;51.026;8.968;2022-10-16T12:03:11;1068.57;;;587.30;;
12577;SDS011;6354;51.026;8.968;2022-10-16T12:05:50;918.60;;;610.42;;
12577;SDS011;6354;51.026;8.968;2022-10-16T12:08:25;1095.60;;;632.05;;
12577;SDS011;6354;51.026;8.968;2022-10-16T12:10:54;1169.75;;;695.15;;
12577;SDS011;6354;51.026;8.968;2022-10-16T12:13:35;1184.13;;;605.92;;
12577;SDS011;6354;51.026;8.968;2022-10-16T12:16:19;1260.80;;;662.25;;
12577;SDS011;6354;51.026;8.968;2022-10-16T12:19:02;1035.65;;;631.30;;
12577;SDS011;6354;51.026;8.968;2022-10-16T12:21:37;1160.85;;;654.95;;
12577;SDS011;6354;51.026;8.968;2022-10-16T12:24:05;1023.85;;;555.50;;
12577;SDS011;6354;51.026;8.968;2022-10-16T12:26:34;1064.57;;;707.58;;
12577;SDS011;6354;51.026;8.968;2022-10-16T12:29:13;1262.85;;;687.75;;
12577;SDS011;6354;51.026;8.968;2022-10-16T12:31:49;1346.82;;;701.90;;
12577;SDS011;6354;51.026;8.968;2022-10-16T12:34:27;1000.97;;;534.25;;
12577;SDS011;6354;51.026;8.968;2022-10-16T12:37:07;1168.47;;;667.78;;
12577;SDS011;6354;51.026;8.968;2022-10-16T12:39:37;1051.82;;;635.75;;
12577;SDS011;6354;51.026;8.968;2022-10-16T12:42:17;1229.28;;;665.80;;
12577;SDS011;6354;51.026;8.968;2022-10-16T12:44:48;1385.95;;;686.90;;
12577;SDS011;6354;51.026;8.968;2022-10-16T12:47:20;1344.95;;;775.03;;
12577;SDS011;6354;51.026;8.968;2022-10-16T12:49:52;1266.63;;;674.58;;
12577;SDS011;6354;51.026;8.968;2022-10-16T12:52:25;963.42;;;655.08;;
12577;SDS011;6354;51.026;8.968;2022-10-16T12:54:56;978.60;;;626.75;;
12577;SDS011;6354;51.026;8.968;2022-10-16T12:57:32;1101.10;;;754.63;;
12577;SDS011;6354;51.026;8.968;2022-10-16T13:00:10;1174.68;;;740.25;;
12577;SDS011;6354;51.026;8.968;2022-10-16T13:03:02;1060.53;;;659.30;;
12577;SDS011;6354;51.026;8.968;2022-10-16T13:05:57;1225.05;;;721.88;;
12577;SDS011;6354;51.026;8.968;2022-10-16T13:08:38;1094.40;;;699.50;;
12577;SDS011;6354;51.026;8.968;2022-10-16T13:11:19;1108.28;;;633.72;;
12577;SDS011;6354;51.026;8.968;2022-10-16T13:13:56;1239.15;;;655.08;;
12577;SDS011;6354;51.026;8.968;2022-10-16T13:16:40;1115.03;;;676.28;;
12577;SDS011;6354;51.026;8.968;2022-10-16T13:19:18;1036.22;;;613.58;;
12577;SDS011;6354;51.026;8.968;2022-10-16T13:21:56;1117.95;;;702.13;;
12577;SDS011;6354;51.026;8.968;2022-10-16T13:24:38;1005.35;;;635.55;;
12577;SDS011;6354;51.026;8.968;2022-10-16T13:27:18;1255.43;;;758.70;;
12577;SDS011;6354;51.026;8.968;2022-10-16T13:29:59;1093.07;;;681.40;;
12577;SDS011;6354;51.026;8.968;2022-10-16T13:32:29;1106.93;;;748.75;;
12577;SDS011;6354;51.026;8.968;2022-10-16T13:34:58;1100.25;;;677.47;;
12577;SDS011;6354;51.026;8.968;2022-10-16T13:37:28;1310.30;;;737.72;;
12577;SDS011;6354;51.026;8.968;2022-10-16T13:40:04;1339.45;;;749.47;;
12577;SDS011;6354;51.026;8.968;2022-10-16T13:42:45;958.97;;;565.45;;
12577;SDS011;6354;51.026;8.968;2022-10-16T13:45:19;1248.85;;;675.33;;
12577;SDS011;6354;51.026;8.968;2022-10-16T13:47:49;1033.90;;;593.05;;
12577;SDS011;6354;51.026;8.968;2022-10-16T13:50:18;940.42;;;534.78;;
12577;SDS011;6354;51.026;8.968;2022-10-16T13:52:47;1149.00;;;631.25;;
12577;SDS011;6354;51.026;8.968;2022-10-16T13:55:16;1024.35;;;652.28;;
12577;SDS011;6354;51.026;8.968;2022-10-16T13:57:45;1139.50;;;666.47;;
12577;SDS011;6354;51.026;8.968;2022-10-16T14:00:21;1112.85;;;576.55;;
12577;SDS011;6354;51.026;8.968;2022-10-16T14:02:51;1225.95;;;680.45;;
12577;SDS011;6354;51.026;8.968;2022-10-16T14:05:22;1125.40;;;635.75;;
12577;SDS011;6354;51.026;8.968;2022-10-16T14:07:52;1058.70;;;670.55;;
12577;SDS011;6354;51.026;8.968;2022-10-16T14:10:22;1161.75;;;680.50;;
12577;SDS011;6354;51.026;8.968;2022-10-16T14:12:56;1062.47;;;642.80;;
12577;SDS011;6354;51.026;8.968;2022-10-16T14:15:25;1144.05;;;651.90;;
12577;SDS011;6354;51.026;8.968;2022-10-16T14:17:54;1158.22;;;628.92;;
12577;SDS011;6354;51.026;8.968;2022-10-16T14:20:24;1054.70;;;629.58;;
12577;SDS011;6354;51.026;8.968;2022-10-16T14:23:01;1131.03;;;648.03;;
12577;SDS011;6354;51.026;8.968;2022-10-16T14:25:32;980.22;;;674.78;;
12577;SDS011;6354;51.026;8.968;2022-10-16T14:28:01;1129.30;;;678.33;;
12577;SDS011;6354;51.026;8.968;2022-10-16T14:30:31;1013.80;;;519.45;;
12577;SDS011;6354;51.026;8.968;2022-10-16T14:33:01;1065.07;;;554.28;;
12577;SDS011;6354;51.026;8.968;2022-10-16T14:35:32;1310.63;;;659.13;;